createdAt,value
2019-01-15T00:00:10.157Z,1.70
2019-01-15T00:03:13.147Z,1.60
2019-01-15T00:06:15.838Z,1.60
2019-01-15T00:09:18.395Z,1.50
2019-01-15T00:12:20.975Z,1.50
2019-01-15T00:15:23.597Z,1.50
2019-01-15T00:18:26.350Z,1.50
2019-01-15T00:21:29.021Z,1.40
2019-01-15T00:24:31.783Z,1.40
2019-01-15T00:27:34.512Z,1.40
2019-01-15T00:30:37.355Z,1.30
2019-01-15T00:33:40.017Z,1.30
2019-01-15T00:36:42.757Z,1.30
2019-01-15T00:39:45.435Z,1.30
2019-01-15T00:42:48.123Z,1.20
2019-01-15T00:45:50.674Z,1.20
2019-01-15T00:48:53.374Z,1.10
2019-01-15T00:51:56.046Z,1.10
2019-01-15T00:54:58.810Z,1.10
2019-01-15T00:58:01.467Z,1.20
2019-01-15T01:01:05.827Z,1.20
2019-01-15T01:04:09.279Z,1.10
2019-01-15T01:07:12.014Z,1.10
2019-01-15T01:10:15.015Z,1.10
2019-01-15T01:13:17.743Z,1.10
2019-01-15T01:16:20.454Z,1.10
2019-01-15T01:19:23.101Z,1.10
2019-01-15T01:22:25.678Z,1.20
2019-01-15T01:25:28.461Z,1.20
2019-01-15T01:28:31.122Z,1.10
2019-01-15T01:31:33.817Z,1.10
2019-01-15T01:34:36.366Z,1.00
2019-01-15T01:37:39.010Z,1.00
2019-01-15T01:40:41.632Z,0.90
2019-01-15T01:43:44.552Z,0.90
2019-01-15T01:46:47.151Z,0.90
2019-01-15T01:49:49.827Z,1.00
2019-01-15T01:52:52.370Z,1.00
2019-01-15T01:55:54.953Z,1.00
2019-01-15T01:58:57.618Z,1.00
2019-01-15T02:02:00.285Z,1.00
2019-01-15T02:05:04.053Z,1.00
2019-01-15T02:08:07.138Z,1.00
2019-01-15T02:11:09.895Z,0.90
2019-01-15T02:14:12.647Z,0.90
2019-01-15T02:17:15.296Z,0.90
2019-01-15T02:20:19.036Z,0.90
2019-01-15T02:23:21.898Z,0.90
2019-01-15T02:26:24.636Z,0.90
2019-01-15T02:29:28.310Z,0.80
2019-01-15T02:32:30.983Z,0.80
2019-01-15T02:35:33.524Z,0.80
2019-01-15T02:38:36.142Z,0.80
2019-01-15T02:41:38.885Z,0.80
2019-01-15T02:44:41.571Z,0.70
2019-01-15T02:47:44.354Z,0.70
2019-01-15T02:54:34.390Z,0.70
2019-01-15T02:57:37.417Z,0.60
2019-01-15T03:00:40.378Z,0.70
2019-01-15T03:03:43.104Z,0.70
2019-01-15T03:06:45.772Z,0.70
2019-01-15T03:09:48.573Z,0.70
2019-01-15T03:12:55.880Z,0.70
2019-01-15T03:15:56.956Z,0.70
2019-01-15T03:19:00.060Z,0.70
2019-01-15T03:22:03.121Z,0.60
2019-01-15T03:25:07.548Z,0.60
2019-01-15T03:28:10.206Z,0.60
2019-01-15T03:31:13.157Z,0.50
2019-01-15T03:34:15.827Z,0.40
2019-01-15T03:37:18.522Z,0.40
2019-01-15T03:40:23.381Z,0.30
2019-01-15T03:43:25.971Z,0.30
2019-01-15T03:46:28.648Z,0.30
2019-01-15T03:49:31.280Z,0.30
2019-01-15T03:52:33.988Z,0.20
2019-01-15T03:55:36.752Z,0.30
2019-01-15T03:58:39.392Z,0.30
2019-01-15T04:01:42.091Z,0.30
2019-01-15T04:04:45.324Z,0.30
2019-01-15T04:07:51.379Z,0.30
2019-01-15T04:10:53.921Z,0.20
2019-01-15T04:13:56.510Z,0.30
2019-01-15T04:16:59.170Z,0.30
2019-01-15T04:20:01.805Z,0.20
2019-01-15T04:23:04.400Z,0.20
2019-01-15T04:26:07.080Z,0.20
2019-01-15T04:29:09.735Z,0.20
2019-01-15T04:32:12.440Z,0.10
2019-01-15T04:35:15.932Z,0.20
2019-01-15T04:38:18.611Z,0.20
2019-01-15T04:41:21.304Z,0.30
2019-01-15T04:44:23.964Z,0.30
2019-01-15T04:47:26.646Z,0.20
2019-01-15T04:50:29.213Z,0.10
2019-01-15T04:53:31.858Z,0.00
2019-01-15T04:56:34.861Z,0.00
2019-01-15T04:59:37.608Z,-0.10
2019-01-15T05:02:40.908Z,-0.20
2019-01-15T05:05:43.612Z,-0.20
2019-01-15T05:08:46.246Z,-0.20
2019-01-15T05:11:48.963Z,-0.20
2019-01-15T05:14:51.598Z,-0.20
2019-01-15T05:17:54.174Z,-0.20
2019-01-15T05:20:57.039Z,-0.20
2019-01-15T05:23:59.748Z,-0.20
2019-01-15T05:27:02.832Z,-0.10
2019-01-15T05:30:08.758Z,-0.10
2019-01-15T05:33:11.406Z,-0.20
2019-01-15T05:36:14.654Z,-0.20
2019-01-15T05:39:17.445Z,-0.20
2019-01-15T05:42:19.964Z,-0.10
2019-01-15T05:45:31.144Z,-0.10
2019-01-15T05:48:35.706Z,0.00
2019-01-15T05:51:40.129Z,0.10
2019-01-15T05:54:43.647Z,0.20
2019-01-15T05:57:46.406Z,0.20
2019-01-15T06:00:48.919Z,0.30
2019-01-15T06:03:51.601Z,0.40
2019-01-15T06:06:54.245Z,0.50
2019-01-15T06:09:56.894Z,0.60
2019-01-15T06:12:59.582Z,0.60
2019-01-15T06:16:03.573Z,0.70
2019-01-15T06:19:06.172Z,0.70
2019-01-15T06:22:08.884Z,0.70
2019-01-15T06:25:11.685Z,0.70
2019-01-15T06:28:14.251Z,0.70
2019-01-15T06:31:17.565Z,0.70
2019-01-15T06:34:20.310Z,0.70
2019-01-15T06:37:23.010Z,0.70
2019-01-15T06:40:25.803Z,0.60
2019-01-15T06:43:28.534Z,0.50
2019-01-15T06:46:31.157Z,0.40
2019-01-15T06:49:33.787Z,0.30
2019-01-15T06:52:36.664Z,0.30
2019-01-15T06:55:39.304Z,0.30
2019-01-15T06:58:42.015Z,0.30
2019-01-15T07:01:44.646Z,0.20
2019-01-15T07:04:47.361Z,0.20
2019-01-15T07:07:50.112Z,0.20
2019-01-15T07:10:52.727Z,0.10
2019-01-15T07:13:57.153Z,0.20
2019-01-15T07:16:59.883Z,0.30
2019-01-15T07:20:03.390Z,0.40
2019-01-15T07:23:06.060Z,0.40
2019-01-15T07:26:08.671Z,0.50
2019-01-15T07:29:11.235Z,0.60
2019-01-15T07:32:13.895Z,0.70
2019-01-15T07:35:16.466Z,0.80
2019-01-15T07:38:19.038Z,0.90
2019-01-15T07:41:21.886Z,1.00
2019-01-15T07:44:24.528Z,1.10
2019-01-15T07:47:27.159Z,1.10
2019-01-15T07:50:29.862Z,1.20
2019-01-15T07:53:32.440Z,1.20
2019-01-15T07:56:35.164Z,1.20
2019-01-15T07:59:37.955Z,1.30
2019-01-15T08:02:41.636Z,1.30
2019-01-15T08:05:44.268Z,1.30
2019-01-15T08:08:46.946Z,1.30
2019-01-15T08:11:49.608Z,1.30
2019-01-15T08:14:53.404Z,1.20
2019-01-15T08:17:56.105Z,1.20
2019-01-15T08:20:58.812Z,1.10
2019-01-15T08:24:04.320Z,1.10
2019-01-15T08:27:07.070Z,1.10
2019-01-15T08:30:15.941Z,1.10
2019-01-15T08:33:18.647Z,1.10
2019-01-15T08:36:21.220Z,1.10
2019-01-15T08:39:23.915Z,1.10
2019-01-15T08:42:26.512Z,1.20
2019-01-15T08:45:29.265Z,1.50
2019-01-15T08:48:33.221Z,1.60
2019-01-15T08:51:36.292Z,1.70
2019-01-15T08:54:38.907Z,1.80
2019-01-15T08:57:41.678Z,1.80
2019-01-15T09:00:44.236Z,1.80
2019-01-15T09:03:46.972Z,1.80
2019-01-15T09:06:49.632Z,1.80
2019-01-15T09:09:52.363Z,1.70
2019-01-15T09:13:41.250Z,1.60
2019-01-15T09:16:43.912Z,1.60
2019-01-15T09:19:46.582Z,1.50
2019-01-15T09:22:49.252Z,1.50
2019-01-15T09:25:51.848Z,1.40
2019-01-15T09:28:54.418Z,1.40
2019-01-15T09:31:58.851Z,1.30
2019-01-15T09:35:01.531Z,1.20
2019-01-15T09:38:06.365Z,1.20
2019-01-15T09:41:09.155Z,1.10
2019-01-15T09:44:11.809Z,1.10
2019-01-15T09:47:14.437Z,1.10
2019-01-15T09:50:17.150Z,1.00
2019-01-15T09:53:19.789Z,1.10
2019-01-15T09:56:22.390Z,1.20
2019-01-15T09:59:24.960Z,1.40
2019-01-15T10:02:27.562Z,1.50
2019-01-15T10:05:30.345Z,1.50
2019-01-15T10:08:33.036Z,1.60
2019-01-15T10:11:35.914Z,1.60
2019-01-15T10:14:41.469Z,1.50
2019-01-15T10:17:43.145Z,1.50
2019-01-15T10:20:45.821Z,1.50
2019-01-15T10:23:48.493Z,1.50
2019-01-15T10:26:51.443Z,1.50
2019-01-15T10:29:59.192Z,1.50
2019-01-15T10:33:24.188Z,1.50
2019-01-15T10:36:25.809Z,1.50
2019-01-15T10:39:28.389Z,1.40
2019-01-15T10:42:31.170Z,1.40
2019-01-15T10:45:33.850Z,1.50
2019-01-15T10:48:36.494Z,1.50
2019-01-15T10:51:39.279Z,1.50
2019-01-15T10:54:42.150Z,1.50
2019-01-15T10:57:44.835Z,1.50
2019-01-15T11:00:47.530Z,1.50
2019-01-15T11:03:50.394Z,1.50
2019-01-15T11:06:53.070Z,1.40
2019-01-15T11:09:55.790Z,1.40
2019-01-15T11:12:58.453Z,1.40
2019-01-15T11:16:01.236Z,1.40
2019-01-15T11:19:03.967Z,1.40
2019-01-15T11:22:06.725Z,1.30
2019-01-15T11:25:11.361Z,1.30
2019-01-15T11:28:15.302Z,1.30
2019-01-15T11:31:18.154Z,1.40
2019-01-15T11:34:20.851Z,1.40
2019-01-15T11:37:23.537Z,1.40
2019-01-15T11:40:26.216Z,1.40
2019-01-15T11:43:29.454Z,1.40
2019-01-15T11:46:32.113Z,1.40
2019-01-15T11:49:34.785Z,1.30
2019-01-15T11:52:37.531Z,1.20
2019-01-15T11:55:40.202Z,1.20
2019-01-15T11:58:43.067Z,1.30
2019-01-15T12:01:50.064Z,1.30
2019-01-15T12:05:04.257Z,1.30
2019-01-15T12:08:35.824Z,1.30
2019-01-15T12:11:48.685Z,1.30
2019-01-15T12:15:13.899Z,1.30
2019-01-15T12:18:42.176Z,1.40
2019-01-15T12:22:02.970Z,1.50
2019-01-15T12:25:34.984Z,1.50
2019-01-15T12:29:10.005Z,1.60
2019-01-15T12:32:23.224Z,1.60
2019-01-15T12:35:48.183Z,1.50
2019-01-15T12:39:28.636Z,1.50
2019-01-15T12:42:57.108Z,1.60
2019-01-15T12:46:34.464Z,1.60
2019-01-15T12:49:55.405Z,1.60
2019-01-15T12:53:32.655Z,1.70
2019-01-15T12:56:58.718Z,1.70
2019-01-15T13:00:26.966Z,1.70
2019-01-15T13:04:02.430Z,1.60
2019-01-15T13:07:33.485Z,1.60
2019-01-15T13:11:01.254Z,1.60
2019-01-15T13:14:35.277Z,1.70
2019-01-15T13:17:55.979Z,1.60
2019-01-15T13:21:36.250Z,1.70
2019-01-15T13:24:58.327Z,1.70
2019-01-15T13:28:10.637Z,1.80
2019-01-15T13:31:31.711Z,1.90
2019-01-15T13:34:46.855Z,1.90
2019-01-15T13:38:17.959Z,1.90
2019-01-15T13:41:40.129Z,1.90
2019-01-15T13:45:11.522Z,1.90
2019-01-15T13:48:52.064Z,2.00
2019-01-15T13:52:14.206Z,2.10
2019-01-15T13:55:40.613Z,2.10
2019-01-15T13:59:02.665Z,2.20
2019-01-15T14:02:23.513Z,1.90
2019-01-15T14:05:36.247Z,1.90
2019-01-15T14:08:57.375Z,2.00
2019-01-15T14:12:12.932Z,2.10
2019-01-15T14:15:48.960Z,2.20
2019-01-15T14:19:14.055Z,2.30
2019-01-15T14:22:36.260Z,2.40
2019-01-15T14:26:05.282Z,2.40
2019-01-15T14:29:26.068Z,2.50
2019-01-15T14:32:51.058Z,2.60
2019-01-15T14:36:25.125Z,2.60
2019-01-15T14:39:53.488Z,2.60
2019-01-15T14:43:27.537Z,2.50
2019-01-15T14:47:04.985Z,2.50
2019-01-15T14:50:26.782Z,2.60
2019-01-15T14:53:41.894Z,2.60
2019-01-15T14:57:15.995Z,2.60
2019-01-15T15:00:44.939Z,2.50
2019-01-15T15:04:06.871Z,2.50
2019-01-15T15:07:47.168Z,2.50
2019-01-15T15:11:24.683Z,2.50
2019-01-15T15:14:49.562Z,2.50
2019-01-15T15:18:11.701Z,2.50
2019-01-15T15:21:39.614Z,2.40
2019-01-15T15:25:00.628Z,2.40
2019-01-15T15:28:22.768Z,2.50
2019-01-15T15:31:59.985Z,2.60
2019-01-15T15:35:26.354Z,2.80
2019-01-15T15:38:48.415Z,2.80
2019-01-15T15:42:29.075Z,2.80
2019-01-15T15:45:50.689Z,2.70
2019-01-15T15:49:11.566Z,2.80
2019-01-15T15:52:32.376Z,2.80
2019-01-15T15:56:01.591Z,2.80
2019-01-15T15:59:23.727Z,2.80
2019-01-15T16:02:49.780Z,2.90
2019-01-15T16:06:03.864Z,2.90
2019-01-15T16:09:29.259Z,2.90
2019-01-15T16:12:51.400Z,3.00
2019-01-15T16:16:40.598Z,3.10
2019-01-15T16:20:15.081Z,3.30
2019-01-15T16:23:39.987Z,3.40
2019-01-15T16:27:05.250Z,3.60
2019-01-15T16:30:21.061Z,3.70
2019-01-15T16:33:41.947Z,3.70
2019-01-15T16:37:02.699Z,3.70
2019-01-15T16:40:32.923Z,3.70
2019-01-15T16:43:55.115Z,3.70
2019-01-15T16:47:16.165Z,3.70
2019-01-15T16:50:30.014Z,3.80
2019-01-15T16:53:44.590Z,3.90
2019-01-15T16:57:05.650Z,3.90
2019-01-15T17:00:39.326Z,4.00
2019-01-15T17:04:01.553Z,3.90
2019-01-15T17:07:23.816Z,3.90
2019-01-15T17:10:34.283Z,3.90
2019-01-15T17:14:08.602Z,3.90
2019-01-15T17:17:36.699Z,3.90
2019-01-15T17:20:50.599Z,3.90
2019-01-15T17:24:14.869Z,3.90
2019-01-15T17:27:29.140Z,3.90
2019-01-15T17:31:03.454Z,3.90
2019-01-15T17:34:25.077Z,4.00
2019-01-15T17:38:02.250Z,4.00
2019-01-15T17:41:15.595Z,3.90
2019-01-15T17:44:36.677Z,4.00
2019-01-15T17:48:07.626Z,4.10
2019-01-15T17:51:35.658Z,4.10
2019-01-15T17:55:07.786Z,4.30
2019-01-15T17:58:20.676Z,4.30
2019-01-15T18:01:51.796Z,4.40
2019-01-15T18:05:16.858Z,4.40
2019-01-15T18:08:37.918Z,4.40
2019-01-15T18:12:02.812Z,4.40
2019-01-15T18:15:29.929Z,4.50
2019-01-15T18:18:59.316Z,4.50
2019-01-15T18:22:24.147Z,4.50
2019-01-15T18:26:02.137Z,4.60
2019-01-15T18:29:26.341Z,4.60
2019-01-15T18:32:57.388Z,4.70
2019-01-15T18:36:20.804Z,4.70
2019-01-15T18:40:01.123Z,4.70
2019-01-15T18:43:29.073Z,4.90
2019-01-15T18:46:55.755Z,4.80
2019-01-15T18:50:21.284Z,4.90
2019-01-15T18:53:30.325Z,4.90
2019-01-15T18:57:07.587Z,4.90
2019-01-15T19:00:44.453Z,4.90
2019-01-15T19:04:06.818Z,4.90
2019-01-15T19:07:32.061Z,4.90
2019-01-15T19:10:53.105Z,4.90
2019-01-15T19:14:04.535Z,4.80
2019-01-15T19:17:44.896Z,4.80
2019-01-15T19:21:25.568Z,4.90
2019-01-15T19:24:46.569Z,4.80
2019-01-15T19:28:13.137Z,4.80
2019-01-15T19:31:34.268Z,4.80
2019-01-15T19:34:56.781Z,4.80
2019-01-15T19:38:37.165Z,4.80
2019-01-15T19:41:58.160Z,4.80
2019-01-15T19:45:23.646Z,4.80
2019-01-15T19:49:03.899Z,4.80
2019-01-15T19:52:34.483Z,4.80
2019-01-15T19:55:55.431Z,4.80
2019-01-15T19:59:16.205Z,4.80
2019-01-15T20:02:47.485Z,4.80
2019-01-15T20:06:27.947Z,4.70
2019-01-15T20:09:48.560Z,4.70
2019-01-15T20:13:10.870Z,4.70
2019-01-15T20:16:38.849Z,4.80
2019-01-15T20:20:01.078Z,4.80
2019-01-15T20:23:27.583Z,4.80
2019-01-15T20:26:52.795Z,4.80
2019-01-15T20:30:13.557Z,4.80
2019-01-15T20:33:36.279Z,4.80
2019-01-15T20:36:57.549Z,4.70
2019-01-15T20:40:27.798Z,4.80
2019-01-15T20:43:52.917Z,4.70
2019-01-15T20:47:15.146Z,4.80
2019-01-15T20:50:37.436Z,4.70
2019-01-15T20:54:08.873Z,4.70
2019-01-15T20:57:40.187Z,4.80
2019-01-15T21:01:02.343Z,4.80
2019-01-15T21:04:36.763Z,4.80
2019-01-15T21:08:04.691Z,4.80
2019-01-15T21:11:44.931Z,4.80
2019-01-15T21:15:12.734Z,4.80
2019-01-15T21:18:33.496Z,4.80
2019-01-15T21:21:44.729Z,4.70
2019-01-15T21:25:06.017Z,4.70
2019-01-15T21:28:26.794Z,4.70
2019-01-15T21:31:47.557Z,4.80
2019-01-15T21:35:09.723Z,4.70
2019-01-15T21:38:44.138Z,4.70
2019-01-15T21:42:06.444Z,4.60
2019-01-15T21:45:27.243Z,4.70
2019-01-15T21:48:55.254Z,4.70
2019-01-15T21:52:47.508Z,4.80
2019-01-15T21:56:05.948Z,4.70
2019-01-15T21:59:30.956Z,4.70
2019-01-15T22:02:57.744Z,4.80
2019-01-15T22:06:29.168Z,4.80
2019-01-15T22:09:48.981Z,4.80
2019-01-15T22:13:14.393Z,4.80
2019-01-15T22:16:36.424Z,4.80
2019-01-15T22:20:07.289Z,4.80
2019-01-15T22:23:29.392Z,4.80
2019-01-15T22:26:50.192Z,4.90
2019-01-15T22:30:12.336Z,5.00
2019-01-15T22:33:43.387Z,4.90
2019-01-15T22:37:20.814Z,4.90
2019-01-15T22:40:32.655Z,4.90
2019-01-15T22:43:45.172Z,4.90
2019-01-15T22:47:07.543Z,5.00
2019-01-15T22:50:28.226Z,5.00
2019-01-15T22:53:47.646Z,5.10
2019-01-15T22:57:22.016Z,5.10
2019-01-15T23:00:50.602Z,5.10
2019-01-15T23:04:31.561Z,5.00
2019-01-15T23:07:52.467Z,4.90
2019-01-15T23:11:29.604Z,5.00
2019-01-15T23:14:57.580Z,4.90
2019-01-15T23:18:37.886Z,5.00
2019-01-15T23:21:59.295Z,4.90
2019-01-15T23:25:19.941Z,4.90
2019-01-15T23:28:31.201Z,4.90
2019-01-15T23:32:05.385Z,4.90
2019-01-15T23:35:34.047Z,4.90
2019-01-15T23:39:11.338Z,4.90
2019-01-15T23:42:45.325Z,4.90
2019-01-15T23:46:06.282Z,4.90
2019-01-15T23:49:50.736Z,4.90
2019-01-15T23:53:24.747Z,4.90
2019-01-15T23:56:47.730Z,4.90
